x

9440910 - Toke Point, Wa (tokw1) Weather Station

6:54am - Tue 1st Sep 2015 All times are PDT. -7 hours from GMT.

  • Wind
    11mph, 17mph gusts
  • Sea Temp 60°f
  • Air Temp 59°f
  • Sea Pressure 1011.5mb
  • 9440910 - Toke Point, Wa
  • 9440910 - Toke Point, Wa

More Historic Weather Station data

Upgrade to MSW Pro to gain access to the past 30 days of data for over 8000 Wavebouys and Weather Stations around the globe.

Join Pro

Comparision Forecast

View Surf forecast
   
Tue 09/01 6:54am 11 17 mph 1011.5mb 60f 59f
6:48am 13 17 mph 1011.4mb 60f 59f
6:42am 13 17 mph 1011.5mb 61f 60f
6:36am 14 18 mph 1011.4mb 61f 60f
6:30am 11 16 mph 1011.4mb 61f 60f
6:24am 11 15 mph 1011.4mb 60f 60f
6:18am 11 17 mph 1011.5mb 60f 60f
6:12am 11 18 mph 1011.4mb 60f 60f
6:06am 14 18 mph 1011.5mb 60f 60f
6:00am 11 17 mph 1011.6mb 60f 60f
5:54am 14 18 mph 1011.6mb 60f 60f
5:48am 13 18 mph 1011.6mb 60f 60f
5:42am 16 21 mph 1011.6mb 60f 60f
5:36am 15 21 mph 1011.6mb 60f 60f
5:30am 15 18 mph 1011.7mb 60f 60f
5:24am 14 18 mph 1011.8mb 60f 60f
5:18am 15 22 mph 1011.8mb 60f 60f
5:12am 11 17 mph 1011.9mb 60f 60f
5:06am 11 16 mph 1012mb 60f 60f
5:00am 10 13 mph 1011.9mb 60f 60f
4:54am 9 14 mph 1012mb 60f 60f
4:48am 9 14 mph 1012mb 60f 60f
4:42am 6 8 mph 1012.1mb 59f 60f
4:36am 7 10 mph 1012.2mb 60f 60f
4:30am 8 11 mph 1012.2mb 60f 60f
4:24am 9 14 mph 1012.3mb 60f 60f
4:18am 10 15 mph 1012.3mb 60f 60f
4:12am 11 15 mph 1012.3mb 60f 60f
4:06am 10 13 mph 1012.3mb 60f 60f
4:00am 11 14 mph 1012.4mb 60f 60f
3:54am 9 13 mph 1012.4mb 60f 60f
3:48am 9 15 mph 1012.4mb 59f 60f
3:42am 11 14 mph 1012.4mb 59f 60f
3:36am 9 13 mph 1012.4mb 59f 60f
3:30am 10 13 mph - - 60f
3:24am 9 13 mph - - 60f
3:18am 10 14 mph 1012.4mb 58f 60f
3:12am 9 13 mph 1012.5mb 58f 60f
3:06am 8 11 mph 1012.5mb 58f 60f
3:00am 9 11 mph 1012.6mb 58f 60f
2:54am 9 13 mph 1012.6mb 58f 60f
2:48am  -  mph 1012.5mb 58f 60f
2:42am  -  mph 1012.5mb 59f 60f
2:36am  -  mph 1012.6mb 60f 60f
2:30am 10 14 mph 1012.6mb 60f 60f
2:24am 10 14 mph 1012.7mb 60f 60f
2:18am 10 13 mph 1012.7mb 60f 60f
2:12am 9 11 mph 1012.6mb 60f 61f
2:06am 9 14 mph 1012.7mb 61f 61f
2:00am 8 11 mph 1012.7mb 60f 61f
1:54am 9 13 mph 1012.7mb 61f 61f
1:48am 10 13 mph 1012.7mb 61f 61f
1:42am 10 14 mph 1012.8mb 61f 61f
1:36am 9 13 mph 1012.9mb 61f 61f
1:30am 9 13 mph 1012.9mb 61f 61f
1:24am 10 13 mph 1012.9mb 61f 61f
1:18am 9 13 mph - 61f 61f
1:12am 13 17 mph - 61f 62f
1:06am 10 14 mph - 61f 62f
1:00am 11 14 mph 1012.9mb 61f 62f
12:54am 10 14 mph 1012.9mb 61f 62f
12:48am 10 14 mph 1012.9mb 61f 62f
12:42am 10 15 mph 1013mb 61f 62f
12:36am 10 14 mph 1013mb 61f 62f
12:30am 11 15 mph 1013.1mb 61f 62f
12:24am 10 14 mph 1013.1mb 61f 62f
12:18am 10 14 mph 1013.1mb 61f 62f
12:12am 10 14 mph 1013.2mb 61f 62f
12:06am 9 15 mph 1013.2mb 61f 62f
12:00am 13 16 mph - 61f 62f
Mon 08/31 11:54pm 13 16 mph - 61f 62f
11:48pm 10 15 mph 1013.2mb 61f 62f
11:42pm 10 14 mph 1013.2mb 61f 62f
11:36pm 11 15 mph 1013.2mb 61f 62f
11:30pm 11 15 mph 1013.2mb 61f 62f
11:24pm 13 16 mph 1013.3mb 61f 62f
11:18pm 11 14 mph 1013.3mb 62f 62f
11:12pm 11 16 mph 1013.4mb 62f 62f
11:06pm 14 17 mph 1013.4mb 62f 62f
11:00pm 13 16 mph 1013.4mb 62f 62f
10:54pm 11 14 mph 1013.5mb 62f 62f
10:48pm 13 15 mph 1013.4mb 62f 62f
10:42pm 11 16 mph 1013.5mb 62f 62f
10:36pm 13 15 mph 1013.5mb 62f 62f
10:30pm 11 14 mph 1013.5mb 62f 62f
10:24pm 10 15 mph 1013.6mb 62f 62f
10:18pm 13 16 mph 1013.5mb 62f 62f
10:12pm 13 15 mph 1013.6mb 63f 62f
10:06pm 11 16 mph 1013.6mb 62f 62f
10:00pm 11 17 mph 1013.6mb 62f -
9:54pm 11 16 mph 1013.6mb 63f -
9:48pm 10 15 mph 1013.6mb 63f 62f
9:42pm 13 16 mph 1013.5mb 63f 62f
9:36pm 10 16 mph 1013.5mb 63f 62f
9:30pm 11 15 mph 1013.5mb 63f 62f
9:24pm 13 16 mph 1013.5mb 63f 62f
9:18pm 14 16 mph 1013.6mb 63f 62f
9:12pm 13 16 mph 1013.6mb 63f 62f
9:06pm 13 17 mph 1013.5mb 63f 62f
9:00pm 11 15 mph - 63f 62f
8:54pm 11 18 mph - 63f 62f
8:48pm 13 16 mph 1013.3mb 63f 62f
8:42pm 11 17 mph 1013.4mb 62f 62f
8:36pm 13 15 mph 1013.4mb 61f 62f
8:30pm 11 17 mph 1013.3mb 61f 62f
8:24pm 10 16 mph 1013.4mb 61f 62f
8:18pm 11 18 mph 1013.3mb 62f 62f
8:12pm 14 17 mph 1013.3mb 62f 62f
8:06pm 11 16 mph 1013.3mb 61f 62f
8:00pm 11 15 mph 1013.4mb 63f 62f
7:54pm 10 15 mph 1013.4mb 62f 62f
7:48pm 9 14 mph 1013.5mb 61f 62f
7:42pm 9 17 mph 1013.5mb 62f 62f
7:36pm 11 15 mph 1013.6mb 61f 62f
7:30pm 11 15 mph 1013.6mb 61f 62f
7:00pm 11 16 mph 1013.7mb 61f 62f
6:54pm 13 18 mph 1013.8mb 61f 62f
6:48pm 13 16 mph 1013.8mb 61f 62f
6:42pm 13 16 mph 1013.9mb 61f 62f
6:36pm 11 16 mph 1013.9mb 61f 62f
6:30pm 10 15 mph 1014mb 61f -
6:24pm 9 15 mph 1013.9mb 60f -
6:18pm 11 16 mph 1014mb 60f -
6:12pm 14 17 mph 1014mb 60f -
6:06pm 13 16 mph 1014.1mb 60f -
6:00pm 13 17 mph 1014.1mb 60f 62f
5:54pm 13 18 mph 1014mb 61f 62f
5:48pm 15 18 mph 1014.1mb 60f 62f
5:42pm 13 17 mph 1014.1mb 60f 62f
5:36pm 14 20 mph 1014.2mb 60f 62f
5:30pm 13 15 mph 1014.2mb 60f 62f
5:24pm 11 17 mph 1014.2mb 60f 62f
5:18pm 14 18 mph 1014.2mb 59f 62f
5:12pm 14 18 mph 1014.3mb 60f 62f
5:06pm 13 17 mph 1014.4mb 60f 62f
5:00pm 13 17 mph 1014.4mb 60f 62f
4:54pm 11 15 mph 1014.4mb 60f 62f
4:48pm 11 16 mph 1014.5mb 59f 62f
4:42pm 10 14 mph 1014.5mb 60f 62f
4:36pm 10 15 mph 1014.5mb 59f 62f
4:00pm 8 11 mph 1014.8mb 59f 62f
3:54pm 8 13 mph 1014.8mb 59f 62f
3:48pm 10 13 mph 1014.9mb 59f 61f
3:42pm 9 13 mph 1014.9mb 59f 61f
3:36pm 8 13 mph 1015mb 59f 62f
3:30pm 9 14 mph 1015mb 58f 61f
3:24pm 9 14 mph 1015mb 58f 61f
3:18pm 10 15 mph 1015.1mb 58f 61f
3:12pm 10 15 mph 1015.1mb 58f 61f
3:06pm 10 16 mph 1015.1mb 58f 62f
3:00pm 13 15 mph 1015mb 58f 61f
2:54pm 11 16 mph 1015.1mb 58f 61f
2:48pm 11 14 mph 1015.1mb 58f 61f
2:42pm 11 14 mph 1015.2mb 58f 61f
2:36pm 10 14 mph 1015.2mb 59f 61f
2:30pm 10 14 mph 1015.3mb 58f 61f
2:24pm 11 15 mph 1015.4mb 59f 61f
2:18pm 11 16 mph 1015.5mb 58f 61f
2:12pm 11 17 mph 1015.5mb 59f 61f
2:06pm 11 15 mph 1015.5mb 60f 61f
2:00pm 13 17 mph 1015.6mb 59f 61f
1:54pm 15 21 mph 1015.6mb 60f 61f
1:48pm 11 18 mph 1015.7mb 60f 62f
1:42pm 13 17 mph 1015.7mb 61f 62f
1:36pm 13 18 mph 1015.7mb 61f 62f
1:30pm 14 18 mph 1015.7mb 60f 62f
1:24pm 14 20 mph 1015.6mb 60f 62f
1:18pm 13 18 mph 1015.6mb 61f 62f
1:12pm 11 20 mph 1015.6mb 61f 62f
1:06pm 15 21 mph 1015.6mb 62f 62f
1:00pm 13 18 mph 1015.6mb 61f 62f
12:54pm 11 17 mph 1015.7mb 62f 62f
12:48pm 10 20 mph 1015.7mb 62f 62f
12:42pm 14 21 mph 1015.7mb 62f 62f
12:36pm 15 20 mph 1015.7mb 62f 62f
12:30pm 15 22 mph 1015.7mb 62f 62f
12:24pm 14 21 mph 1015.7mb 62f 62f
12:18pm 15 21 mph 1015.6mb 62f 62f
12:12pm 13 20 mph 1015.7mb 62f 62f
12:06pm 18 23 mph 1015.7mb 62f 62f
12:00pm 13 20 mph 1015.7mb 62f 62f
11:54am 17 23 mph 1015.6mb 61f 62f
11:48am 17 21 mph 1015.6mb 61f 62f
11:42am 18 24 mph 1015.6mb 62f 62f
11:36am 15 23 mph 1015.6mb 62f 62f
11:30am 18 24 mph 1015.6mb 62f 62f
11:24am 17 23 mph 1015.7mb 62f 62f
10:54am 18 24 mph 1015.6mb 63f 62f
10:48am 18 23 mph 1015.6mb 63f 62f
10:42am 17 22 mph 1015.5mb 63f 62f
10:36am 20 24 mph 1015.5mb 63f 62f
10:30am 16 22 mph 1015.6mb 63f 62f
10:24am 15 21 mph 1015.6mb 62f 62f
10:18am 17 22 mph 1015.5mb 62f 62f
10:12am 17 23 mph 1015.5mb 62f 62f
10:06am 17 23 mph 1015.4mb 62f 62f
10:00am 17 23 mph 1015.3mb 62f 62f
9:54am 16 22 mph 1015.3mb 62f 62f
9:48am 16 22 mph 1015.3mb 62f 61f
9:42am 14 23 mph 1015.3mb 62f 61f
9:36am 18 22 mph 1015.3mb 62f 61f
9:30am 17 23 mph 1015.3mb 62f 62f
9:24am 18 22 mph 1015.2mb 62f 62f
9:18am 17 23 mph 1015.2mb 62f 61f
9:12am 18 22 mph 1015.2mb 62f 61f
9:06am 15 22 mph 1015.3mb 62f 61f
9:00am 16 23 mph 1015.3mb 62f 61f
6:54am 10 22 mph 1015mb 61f 60f
6:48am 15 23 mph 1014.9mb 62f 60f
5:54am 14 18 mph 1014.8mb 62f 59f
5:48am 13 16 mph 1014.7mb 62f 59f
4:54am 20 28 mph 1014.7mb 62f 60f
4:48am 18 24 mph 1014.7mb 61f 60f
3:54am 17 24 mph 1014.8mb 62f 60f
3:48am 17 22 mph 1014.8mb 62f 60f
2:54am 20 25 mph 1014.9mb 60f 61f
2:48am 18 24 mph 1014.9mb 60f 60f